Chicago, Illinois
Traffic Map
Current Weather Conditions
Chicago, Illinois
Scattered Clouds
Scattered Clouds
32°
Feels Like: 35°
Wind Chill: 32° Ceiling: Unl
Heat Index: 35° Visibility: 10mi
Dew Point: 21° Wind: 23mph
Humidity: 50% Direction: 230° (SW)
Pressure: 29.67in Gusts: 33mph
Raw Report DataKMDW 022353Z 23020G29KT 10SM SCT045 SCT250 32/21 A2967 RMK AO2 PK WND 22032/2308 SLP034 T03220206 10350 20317 56018 $
Traffic Incident Summary
Active as of:
Severity:
Category:
InformationThere was an issue retrieving the traffic information for this location. Please try a different location or try again shortly.
Advertisements
Track Severe Weather on mobile